createdAt,value
2018-12-01T00:01:42.491Z,34.53
2018-12-01T00:04:10.115Z,34.30
2018-12-01T00:06:37.694Z,29.67
2018-12-01T00:09:05.312Z,23.90
2018-12-01T00:11:32.891Z,28.70
2018-12-01T00:14:00.551Z,33.20
2018-12-01T00:16:28.067Z,29.60
2018-12-01T00:18:55.684Z,33.20
2018-12-01T00:21:23.267Z,29.17
2018-12-01T00:23:50.854Z,36.77
2018-12-01T00:26:18.486Z,26.83
2018-12-01T00:28:46.068Z,36.17
2018-12-01T00:31:13.644Z,31.03
2018-12-01T00:33:41.529Z,32.50
2018-12-01T00:36:09.116Z,25.67
2018-12-01T00:38:36.695Z,28.93
2018-12-01T00:41:04.322Z,31.20
2018-12-01T00:43:31.902Z,28.47
2018-12-01T00:45:59.479Z,29.77
2018-12-01T00:48:27.115Z,29.17
2018-12-01T00:50:55.465Z,31.43
2018-12-01T00:53:23.038Z,33.10
2018-12-01T00:55:50.683Z,29.23
2018-12-01T00:58:18.228Z,33.23
2018-12-01T01:00:45.814Z,27.20
2018-12-01T01:03:13.762Z,30.57
2018-12-01T01:05:41.340Z,30.90
2018-12-01T01:08:08.916Z,25.00
2018-12-01T01:10:36.539Z,37.27
2018-12-01T01:13:04.119Z,31.20
2018-12-01T01:15:32.082Z,25.43
2018-12-01T01:17:59.711Z,29.83
2018-12-01T01:20:27.298Z,31.93
2018-12-01T01:22:54.885Z,30.90
2018-12-01T01:25:22.499Z,31.07
2018-12-01T01:27:50.076Z,24.57
2018-12-01T01:30:17.728Z,27.37
2018-12-01T01:32:45.308Z,26.37
2018-12-01T01:35:12.891Z,22.07
2018-12-01T01:37:40.496Z,33.87
2018-12-01T01:40:08.077Z,25.70
2018-12-01T01:42:35.685Z,31.27
2018-12-01T01:45:03.263Z,24.10
2018-12-01T01:47:30.838Z,32.47
2018-12-01T01:49:59.226Z,30.07
2018-12-01T01:52:27.563Z,30.13
2018-12-01T01:54:55.190Z,29.07
2018-12-01T01:57:22.775Z,20.87
2018-12-01T01:59:50.354Z,31.10
2018-12-01T02:02:17.957Z,26.13
2018-12-01T02:04:45.539Z,30.20
2018-12-01T02:07:13.145Z,23.40
2018-12-01T02:09:40.715Z,22.50
2018-12-01T02:12:09.700Z,30.30
2018-12-01T02:14:37.269Z,22.90
2018-12-01T02:17:05.617Z,30.20
2018-12-01T02:19:33.217Z,26.13
2018-12-01T02:22:00.802Z,18.77
2018-12-01T02:24:28.414Z,23.10
2018-12-01T02:26:56.265Z,27.60
2018-12-01T02:29:23.895Z,30.63
2018-12-01T02:31:51.466Z,25.37
2018-12-01T02:34:19.044Z,23.50
2018-12-01T02:36:46.640Z,19.73
2018-12-01T02:39:14.234Z,21.00
2018-12-01T02:41:41.852Z,22.13
2018-12-01T02:44:20.987Z,22.83
2018-12-01T02:46:57.825Z,27.23
2018-12-01T02:49:25.403Z,20.83
2018-12-01T02:51:52.983Z,23.10
2018-12-01T02:54:20.590Z,21.60
2018-12-01T02:56:48.172Z,24.47
2018-12-01T02:59:15.786Z,20.23
2018-12-01T03:01:43.363Z,23.80
2018-12-01T03:04:10.933Z,19.37
2018-12-01T03:06:38.533Z,25.40
2018-12-01T03:09:06.116Z,20.27
2018-12-01T03:11:33.752Z,24.97
2018-12-01T03:14:01.319Z,19.13
2018-12-01T03:16:28.909Z,23.63
2018-12-01T03:18:56.507Z,23.07
2018-12-01T03:21:24.873Z,23.20
2018-12-01T03:23:53.250Z,23.43
2018-12-01T03:26:20.827Z,20.40
2018-12-01T03:28:49.181Z,20.10
2018-12-01T03:31:16.784Z,24.17
2018-12-01T03:33:44.362Z,24.33
2018-12-01T03:36:11.988Z,23.73
2018-12-01T03:38:40.337Z,21.53
2018-12-01T03:41:08.319Z,26.87
2018-12-01T03:43:35.905Z,30.35
2018-12-01T03:46:04.251Z,27.63
2018-12-01T03:48:31.878Z,28.37
2018-12-01T03:50:59.460Z,30.93
2018-12-01T03:53:27.069Z,29.43
2018-12-01T03:55:55.419Z,29.10
2018-12-01T03:58:23.005Z,27.40
2018-12-01T04:00:51.379Z,30.98
2018-12-01T04:03:19.725Z,31.10
2018-12-01T04:05:47.345Z,31.53
2018-12-01T04:08:14.934Z,25.50
2018-12-01T04:10:42.507Z,30.33
2018-12-01T04:13:10.121Z,25.63
2018-12-01T04:15:38.464Z,31.40
2018-12-01T04:18:06.075Z,24.00
2018-12-01T04:20:33.651Z,24.73
2018-12-01T04:23:01.505Z,29.77
2018-12-01T04:25:29.115Z,25.53
2018-12-01T04:27:56.702Z,26.27
2018-12-01T04:30:25.114Z,21.93
2018-12-01T04:32:52.693Z,23.13
2018-12-01T04:35:20.279Z,27.10
2018-12-01T04:37:47.883Z,20.77
2018-12-01T04:40:16.225Z,22.47
2018-12-01T04:42:43.830Z,23.40
2018-12-01T04:45:11.419Z,22.03
2018-12-01T04:47:39.011Z,24.83
2018-12-01T04:50:06.620Z,25.27
2018-12-01T04:52:34.199Z,28.60
2018-12-01T04:55:01.824Z,27.90
2018-12-01T04:57:30.177Z,27.87
2018-12-01T04:59:57.753Z,28.27
2018-12-01T05:02:26.155Z,29.53
2018-12-01T05:04:53.733Z,24.50
2018-12-01T05:07:21.347Z,26.17
2018-12-01T05:09:48.935Z,23.23
2018-12-01T05:12:17.284Z,21.30
2018-12-01T05:14:44.877Z,20.93
2018-12-01T05:17:13.228Z,25.60
2018-12-01T05:19:41.543Z,22.50
2018-12-01T05:22:09.122Z,22.53
2018-12-01T05:24:36.696Z,20.07
2018-12-01T05:27:04.298Z,24.73
2018-12-01T05:29:31.880Z,22.03
2018-12-01T05:32:00.255Z,26.43
2018-12-01T05:34:28.609Z,29.27
2018-12-01T05:36:56.263Z,27.57
2018-12-01T05:39:23.839Z,30.27
2018-12-01T05:41:51.434Z,33.40
2018-12-01T05:44:19.806Z,33.78
2018-12-01T05:46:48.151Z,25.83
2018-12-01T05:49:15.772Z,30.53
2018-12-01T05:51:43.361Z,31.23
2018-12-01T05:54:10.944Z,29.37
2018-12-01T05:56:38.562Z,27.17
2018-12-01T05:59:06.153Z,31.63
2018-12-01T06:01:33.780Z,29.33
2018-12-01T06:04:01.372Z,36.37
2018-12-01T06:06:28.963Z,27.27
2018-12-01T06:08:56.586Z,31.50
2018-12-01T06:11:24.171Z,25.73
2018-12-01T06:13:51.752Z,24.57
2018-12-01T06:16:19.455Z,30.33
2018-12-01T06:18:47.094Z,25.73
2018-12-01T06:21:15.439Z,28.63
2018-12-01T06:23:43.060Z,27.63
2018-12-01T06:26:10.637Z,21.83
2018-12-01T06:28:38.219Z,27.87
2018-12-01T06:31:05.906Z,28.67
2018-12-01T06:33:33.495Z,36.43
2018-12-01T06:36:01.079Z,28.67
2018-12-01T06:38:28.735Z,31.33
2018-12-01T06:40:56.325Z,27.70
2018-12-01T06:43:23.914Z,32.37
2018-12-01T06:45:51.531Z,24.43
2018-12-01T06:48:19.121Z,26.80
2018-12-01T06:50:46.699Z,24.67
2018-12-01T06:53:14.586Z,28.07
2018-12-01T06:55:42.933Z,26.60
2018-12-01T06:58:10.512Z,28.27
2018-12-01T07:00:38.467Z,28.03
2018-12-01T07:03:06.052Z,22.30
2018-12-01T07:05:34.813Z,22.00
2018-12-01T07:08:02.438Z,29.07
2018-12-01T07:10:30.012Z,24.03
2018-12-01T07:12:57.591Z,19.83
2018-12-01T07:15:25.190Z,18.63
2018-12-01T07:17:52.774Z,18.07
2018-12-01T07:20:20.353Z,21.03
2018-12-01T07:22:48.285Z,18.00
2018-12-01T07:25:16.625Z,22.63
2018-12-01T07:27:44.266Z,23.10
2018-12-01T07:30:11.845Z,21.27
2018-12-01T07:32:39.442Z,21.87
2018-12-01T07:35:07.823Z,29.52
2018-12-01T07:37:36.171Z,21.87
2018-12-01T07:40:03.817Z,23.47
2018-12-01T07:42:31.391Z,25.40
2018-12-01T07:44:58.969Z,26.50
2018-12-01T07:47:26.571Z,21.67
2018-12-01T07:49:54.173Z,23.30
2018-12-01T07:52:21.828Z,22.67
2018-12-01T07:54:49.414Z,17.97
2018-12-01T07:57:17.306Z,22.57
2018-12-01T07:59:45.675Z,23.83
2018-12-01T08:02:13.255Z,17.53
2018-12-01T08:04:42.120Z,18.67
2018-12-01T08:07:09.700Z,15.47
2018-12-01T08:09:38.053Z,21.13
2018-12-01T08:12:05.656Z,23.67
2018-12-01T08:14:34.002Z,13.33
2018-12-01T08:17:01.971Z,15.87
2018-12-01T08:19:29.566Z,19.07
2018-12-01T08:21:57.912Z,19.02
2018-12-01T08:24:25.512Z,16.43
2018-12-01T08:26:54.142Z,25.07
2018-12-01T08:29:21.749Z,19.43
2018-12-01T08:31:50.090Z,22.17
2018-12-01T08:34:19.125Z,17.93
2018-12-01T08:36:47.476Z,18.13
2018-12-01T08:39:15.051Z,17.23
2018-12-01T08:41:42.714Z,16.60
2018-12-01T08:44:10.288Z,17.50
2018-12-01T08:46:37.860Z,15.20
2018-12-01T08:49:06.224Z,17.83
2018-12-01T08:51:33.808Z,14.33
2018-12-01T08:54:01.739Z,14.97
2018-12-01T08:56:29.320Z,14.30
2018-12-01T08:58:56.905Z,16.10
2018-12-01T09:01:24.524Z,14.03
2018-12-01T09:03:52.105Z,15.27
2018-12-01T09:06:21.210Z,14.80
2018-12-01T09:08:49.556Z,13.63
2018-12-01T09:11:17.121Z,12.50
2018-12-01T09:13:44.748Z,13.67
2018-12-01T09:16:12.335Z,16.33
2018-12-01T09:18:39.905Z,15.37
2018-12-01T09:21:07.509Z,10.10
2018-12-01T09:23:35.082Z,18.73
2018-12-01T09:26:02.706Z,14.80
2018-12-01T09:28:31.697Z,11.63
2018-12-01T09:30:59.282Z,12.47
2018-12-01T09:33:27.663Z,13.97
2018-12-01T09:35:55.584Z,16.00
2018-12-01T09:38:24.200Z,15.17
2018-12-01T09:40:51.669Z,12.73
2018-12-01T09:43:20.015Z,20.77
2018-12-01T09:45:47.629Z,13.97
2018-12-01T09:48:15.206Z,13.77
2018-12-01T09:50:42.839Z,14.15
2018-12-01T09:53:11.182Z,8.07
2018-12-01T09:55:38.762Z,13.37
2018-12-01T09:58:06.392Z,12.52
2018-12-01T10:00:33.966Z,15.10
2018-12-01T10:03:01.548Z,10.60
2018-12-01T10:05:29.153Z,9.27
2018-12-01T10:07:56.724Z,14.07
2018-12-01T10:10:24.709Z,11.83
2018-12-01T10:12:52.285Z,10.23
2018-12-01T10:15:19.861Z,11.80
2018-12-01T10:17:47.470Z,10.60
2018-12-01T10:20:15.083Z,9.47
2018-12-01T10:22:42.947Z,5.93
2018-12-01T10:25:10.526Z,12.17
2018-12-01T10:27:38.892Z,12.50
2018-12-01T10:30:06.521Z,12.20
2018-12-01T10:32:35.239Z,11.60
2018-12-01T10:35:02.827Z,11.53
2018-12-01T10:37:31.504Z,9.17
2018-12-01T10:39:59.076Z,9.63
2018-12-01T10:42:27.429Z,13.40
2018-12-01T10:44:55.097Z,6.87
2018-12-01T10:47:22.672Z,5.13
2018-12-01T10:49:51.034Z,8.30
2018-12-01T10:52:18.655Z,5.50
2018-12-01T10:54:46.228Z,8.60
2018-12-01T10:57:13.804Z,8.67
2018-12-01T10:59:41.449Z,7.33
2018-12-01T11:02:09.024Z,8.60
2018-12-01T11:04:36.598Z,9.10
2018-12-01T11:07:04.969Z,7.83
2018-12-01T11:09:32.548Z,9.18
2018-12-01T11:12:00.207Z,8.85
2018-12-01T11:14:27.792Z,7.05
2018-12-01T11:16:56.155Z,8.23
2018-12-01T11:19:25.042Z,8.20
2018-12-01T11:21:52.630Z,8.03
2018-12-01T11:24:20.977Z,6.90
2018-12-01T11:26:48.606Z,7.07
2018-12-01T11:29:18.701Z,9.33
2018-12-01T11:31:46.277Z,4.80
2018-12-01T11:34:13.921Z,8.20
2018-12-01T11:36:42.260Z,5.90
2018-12-01T11:39:09.842Z,7.60
2018-12-01T11:41:38.842Z,12.23
2018-12-01T11:44:07.223Z,8.77
2018-12-01T11:46:34.765Z,9.33
2018-12-01T11:49:02.440Z,7.27
2018-12-01T11:51:30.023Z,9.07
2018-12-01T11:53:58.372Z,5.73
2018-12-01T11:56:27.260Z,9.70
2018-12-01T11:58:54.838Z,5.03
2018-12-01T12:01:22.458Z,8.30
2018-12-01T12:03:50.799Z,7.67
2018-12-01T12:06:19.151Z,11.13
2018-12-01T12:08:46.747Z,8.87
2018-12-01T12:11:14.323Z,8.50
2018-12-01T12:13:42.343Z,10.70
2018-12-01T12:16:09.921Z,7.60
2018-12-01T12:18:37.512Z,5.87
2018-12-01T12:21:05.961Z,7.67
2018-12-01T12:23:33.475Z,6.53
2018-12-01T12:26:01.088Z,8.20
2018-12-01T12:28:28.726Z,6.20
2018-12-01T12:30:56.317Z,5.50
2018-12-01T12:33:23.903Z,6.90
2018-12-01T12:35:51.528Z,6.20
2018-12-01T12:38:19.143Z,11.30
2018-12-01T12:40:46.716Z,11.20
2018-12-01T12:43:15.129Z,6.80
2018-12-01T12:45:42.724Z,3.43
2018-12-01T12:48:11.049Z,12.07
2018-12-01T12:50:38.648Z,7.20
2018-12-01T12:53:06.992Z,6.85
2018-12-01T12:55:35.314Z,7.17
2018-12-01T12:58:06.004Z,3.80
2018-12-01T13:00:33.605Z,7.93
2018-12-01T13:03:01.699Z,9.30
2018-12-01T13:05:29.270Z,5.40
2018-12-01T13:07:56.871Z,6.03
2018-12-01T13:10:24.980Z,6.07
2018-12-01T13:12:53.323Z,5.03
2018-12-01T13:15:20.931Z,5.37
2018-12-01T13:17:49.262Z,9.63
2018-12-01T13:20:16.843Z,7.53
2018-12-01T13:22:44.433Z,10.00
2018-12-01T13:25:12.827Z,8.10
2018-12-01T13:27:40.398Z,11.60
2018-12-01T13:30:07.981Z,9.10
2018-12-01T13:32:36.118Z,5.50
2018-12-01T13:35:03.679Z,6.37
2018-12-01T13:37:31.252Z,7.47
2018-12-01T13:39:58.888Z,10.80
2018-12-01T13:42:27.232Z,10.83
2018-12-01T13:44:54.814Z,16.23
2018-12-01T13:47:23.738Z,7.60
2018-12-01T13:49:51.316Z,5.03
2018-12-01T13:52:19.841Z,12.63
2018-12-01T13:54:47.419Z,9.27
2018-12-01T13:57:15.764Z,9.43
2018-12-01T13:59:43.426Z,8.23
2018-12-01T14:02:11.012Z,12.20
2018-12-01T14:04:38.633Z,7.57
2018-12-01T14:07:06.240Z,7.90
2018-12-01T14:09:33.822Z,8.07
2018-12-01T14:12:02.160Z,7.03
2018-12-01T14:14:30.551Z,7.80
2018-12-01T14:16:58.134Z,6.70
2018-12-01T14:19:26.523Z,10.98
2018-12-01T14:21:54.092Z,8.37
2018-12-01T14:24:21.671Z,10.02
2018-12-01T14:26:49.326Z,15.33
2018-12-01T14:29:17.940Z,11.00
2018-12-01T14:31:45.515Z,8.40
2018-12-01T14:34:13.143Z,10.23
2018-12-01T14:36:40.715Z,6.77
2018-12-01T14:39:08.297Z,7.73
2018-12-01T14:41:35.950Z,9.83
2018-12-01T14:44:03.522Z,8.43
2018-12-01T14:46:31.115Z,9.30
2018-12-01T14:48:58.807Z,11.07
2018-12-01T14:51:27.119Z,10.47
2018-12-01T14:53:54.696Z,9.23
2018-12-01T14:56:22.294Z,12.00
2018-12-01T14:58:50.654Z,16.77
2018-12-01T15:01:18.298Z,10.63
2018-12-01T15:03:45.914Z,12.00
2018-12-01T15:06:13.513Z,6.83
2018-12-01T15:08:41.614Z,10.30
2018-12-01T15:11:09.189Z,11.47
2018-12-01T15:13:36.778Z,9.25
2018-12-01T15:16:04.399Z,6.23
2018-12-01T15:18:31.987Z,10.43
2018-12-01T15:20:59.553Z,7.97
2018-12-01T15:23:27.531Z,6.57
2018-12-01T15:25:55.146Z,6.53
2018-12-01T15:28:23.094Z,18.00
2018-12-01T15:30:50.719Z,10.93
2018-12-01T15:33:18.285Z,9.70
2018-12-01T15:35:45.857Z,8.57
2018-12-01T15:38:14.342Z,13.93
2018-12-01T15:40:41.049Z,7.23
2018-12-01T15:43:09.435Z,9.97
2018-12-01T15:45:37.782Z,8.30
2018-12-01T15:48:05.350Z,13.82
2018-12-01T15:50:32.954Z,12.40
2018-12-01T15:53:00.521Z,5.70
2018-12-01T15:55:28.595Z,9.23
2018-12-01T15:57:56.221Z,7.80
2018-12-01T16:00:23.786Z,13.30
2018-12-01T16:02:52.185Z,10.70
2018-12-01T16:05:19.794Z,5.03
2018-12-01T16:07:47.333Z,6.67
2018-12-01T16:10:15.905Z,9.93
2018-12-01T16:12:43.494Z,8.63
2018-12-01T16:15:11.069Z,8.77
2018-12-01T16:17:38.673Z,10.83
2018-12-01T16:20:06.681Z,8.63
2018-12-01T16:22:34.579Z,6.17
2018-12-01T16:25:02.179Z,12.53
2018-12-01T16:27:29.797Z,11.15
2018-12-01T16:29:57.422Z,11.10
2018-12-01T16:32:24.997Z,6.70
2018-12-01T16:34:52.571Z,9.10
2018-12-01T16:37:20.220Z,11.03
2018-12-01T16:39:48.113Z,6.33
2018-12-01T16:42:15.724Z,10.20
2018-12-01T16:44:43.316Z,6.13
2018-12-01T16:47:11.048Z,5.60
2018-12-01T16:49:38.816Z,9.07
2018-12-01T16:52:06.394Z,6.57
2018-12-01T16:54:34.714Z,13.57
2018-12-01T16:57:02.300Z,10.27
2018-12-01T16:59:31.773Z,10.30
2018-12-01T17:01:58.267Z,13.37
2018-12-01T17:04:25.901Z,12.53
2018-12-01T17:06:53.519Z,9.40
2018-12-01T17:09:21.172Z,12.80
2018-12-01T17:11:48.750Z,11.23
2018-12-01T17:14:16.390Z,9.50
2018-12-01T17:16:43.994Z,10.50
2018-12-01T17:19:11.579Z,14.30
2018-12-01T17:21:39.666Z,7.37
2018-12-01T17:24:07.255Z,10.63
2018-12-01T17:26:34.842Z,8.43
2018-12-01T17:29:02.449Z,8.60
2018-12-01T17:31:30.022Z,11.47
2018-12-01T17:33:58.046Z,12.80
2018-12-01T17:36:25.622Z,11.50
2018-12-01T17:38:53.199Z,12.30
2018-12-01T17:41:21.597Z,8.93
2018-12-01T17:43:49.165Z,9.37
2018-12-01T17:46:16.737Z,8.70
2018-12-01T17:48:44.357Z,9.80
2018-12-01T17:51:11.926Z,8.53
2018-12-01T17:53:39.500Z,12.73
2018-12-01T17:56:07.483Z,13.27
2018-12-01T17:58:35.060Z,7.80
2018-12-01T18:01:02.634Z,10.13
2018-12-01T18:03:30.257Z,7.57
2018-12-01T18:05:57.839Z,15.93
2018-12-01T18:08:25.421Z,9.75
2018-12-01T18:10:53.292Z,9.53
2018-12-01T18:13:20.874Z,9.67
2018-12-01T18:15:50.134Z,10.43
2018-12-01T18:18:16.176Z,12.40
2018-12-01T18:20:43.753Z,12.93
2018-12-01T18:23:11.720Z,12.00
2018-12-01T18:25:39.299Z,13.70
2018-12-01T18:28:06.877Z,9.73
2018-12-01T18:30:34.859Z,10.70
2018-12-01T18:33:02.446Z,14.30
2018-12-01T18:35:30.017Z,11.30
2018-12-01T18:37:57.883Z,12.90
2018-12-01T18:40:25.465Z,12.70
2018-12-01T18:42:53.080Z,12.80
2018-12-01T18:45:20.657Z,17.77
2018-12-01T18:47:48.316Z,15.67
2018-12-01T18:50:15.996Z,18.53
2018-12-01T18:52:43.538Z,16.83
2018-12-01T18:55:11.163Z,12.67
2018-12-01T18:57:39.510Z,14.70
2018-12-01T19:00:07.087Z,16.47
2018-12-01T19:02:34.804Z,14.07
2018-12-01T19:05:03.114Z,15.70
2018-12-01T19:07:30.694Z,13.87
2018-12-01T19:09:58.325Z,16.08
2018-12-01T19:12:25.942Z,14.10
2018-12-01T19:14:53.485Z,9.57
2018-12-01T19:17:22.068Z,12.50
2018-12-01T19:19:49.644Z,7.57
2018-12-01T19:22:17.427Z,12.07
2018-12-01T19:24:45.788Z,13.37
2018-12-01T19:27:14.131Z,14.83
2018-12-01T19:29:41.703Z,9.57
2018-12-01T19:32:09.331Z,13.93
2018-12-01T19:34:36.908Z,15.33
2018-12-01T19:37:04.488Z,11.93
2018-12-01T19:39:32.159Z,13.90
2018-12-01T19:41:59.706Z,15.53
2018-12-01T19:44:27.317Z,11.07
2018-12-01T19:46:54.928Z,11.20
2018-12-01T19:49:22.526Z,12.90
2018-12-01T19:51:50.872Z,11.50
2018-12-01T19:54:18.504Z,13.80
2018-12-01T19:56:46.092Z,18.80
2018-12-01T19:59:13.676Z,18.92
2018-12-01T20:01:41.330Z,13.17
2018-12-01T20:04:08.874Z,13.07
2018-12-01T20:06:36.447Z,13.00
2018-12-01T20:09:04.938Z,10.77
2018-12-01T20:11:32.526Z,15.30
2018-12-01T20:14:00.112Z,12.80
2018-12-01T20:16:27.781Z,11.20
2018-12-01T20:18:55.362Z,10.17
2018-12-01T20:21:22.948Z,10.33
2018-12-01T20:23:50.567Z,11.23
2018-12-01T20:26:18.147Z,13.93
2018-12-01T20:28:45.740Z,13.80
2018-12-01T20:31:13.371Z,13.87
2018-12-01T20:33:40.949Z,13.03
2018-12-01T20:36:08.687Z,16.70
2018-12-01T20:38:36.161Z,15.03
2018-12-01T20:41:03.736Z,11.40
2018-12-01T20:43:31.325Z,11.07
2018-12-01T20:45:59.724Z,10.50
2018-12-01T20:48:27.327Z,10.27
2018-12-01T20:50:54.907Z,10.87
2018-12-01T20:53:23.498Z,14.37
2018-12-01T20:55:51.087Z,10.53
2018-12-01T20:58:19.821Z,13.87
2018-12-01T21:00:47.502Z,13.97
2018-12-01T21:03:15.073Z,16.03
2018-12-01T21:05:42.649Z,15.63
2018-12-01T21:08:10.757Z,9.70
2018-12-01T21:10:38.342Z,11.67
2018-12-01T21:13:05.925Z,14.13
2018-12-01T21:15:33.554Z,12.17
2018-12-01T21:18:01.146Z,17.13
2018-12-01T21:20:28.714Z,16.37
2018-12-01T21:22:56.802Z,10.50
2018-12-01T21:25:24.383Z,15.85
2018-12-01T21:27:51.965Z,14.23
2018-12-01T21:30:19.578Z,12.87
2018-12-01T21:32:47.235Z,11.57
2018-12-01T21:35:15.331Z,9.23
2018-12-01T21:37:42.888Z,8.93
2018-12-01T21:40:10.518Z,15.10
2018-12-01T21:42:38.099Z,8.33
2018-12-01T21:45:05.676Z,7.53
2018-12-01T21:47:34.063Z,8.23
2018-12-01T21:50:01.643Z,11.97
2018-12-01T21:52:29.219Z,13.62
2018-12-01T21:54:56.830Z,10.03
2018-12-01T21:57:24.412Z,8.53
2018-12-01T21:59:52.819Z,6.90
2018-12-01T22:02:20.396Z,7.40
2018-12-01T22:04:47.970Z,10.17
2018-12-01T22:07:15.591Z,6.63
2018-12-01T22:09:43.162Z,10.37
2018-12-01T22:12:10.757Z,5.63
2018-12-01T22:14:38.407Z,10.05
2018-12-01T22:17:05.973Z,6.43
2018-12-01T22:19:36.950Z,6.83
2018-12-01T22:22:05.291Z,6.63
2018-12-01T22:24:33.055Z,4.00
2018-12-01T22:27:00.689Z,7.10
2018-12-01T22:29:28.263Z,6.77
2018-12-01T22:31:58.722Z,4.77
2018-12-01T22:34:26.658Z,7.90
2018-12-01T22:36:54.163Z,6.53
2018-12-01T22:39:21.760Z,4.50
2018-12-01T22:41:49.379Z,6.10
2018-12-01T22:44:16.949Z,4.03
2018-12-01T22:46:44.518Z,4.53
2018-12-01T22:49:12.132Z,5.27
2018-12-01T22:51:39.712Z,5.83
2018-12-01T22:54:07.349Z,4.53
2018-12-01T22:56:34.923Z,5.63
2018-12-01T22:59:02.490Z,5.40
2018-12-01T23:01:30.115Z,3.83
2018-12-01T23:03:58.453Z,2.57
2018-12-01T23:06:26.031Z,3.90
2018-12-01T23:08:53.636Z,3.77
2018-12-01T23:11:21.208Z,3.47
2018-12-01T23:13:48.852Z,3.27
2018-12-01T23:16:16.426Z,3.27
2018-12-01T23:18:44.004Z,2.50
2018-12-01T23:21:11.598Z,3.83
2018-12-01T23:23:39.188Z,2.23
2018-12-01T23:26:06.813Z,2.13
2018-12-01T23:28:34.388Z,3.07
2018-12-01T23:31:02.974Z,3.37
2018-12-01T23:33:32.777Z,5.43
2018-12-01T23:36:00.355Z,2.20
2018-12-01T23:38:29.836Z,2.80
2018-12-01T23:40:57.420Z,2.57
2018-12-01T23:43:25.776Z,2.47
2018-12-01T23:45:53.374Z,2.50
2018-12-01T23:48:21.716Z,2.60
2018-12-01T23:50:50.754Z,3.80
2018-12-01T23:53:19.092Z,3.73
2018-12-01T23:55:46.665Z,1.53
2018-12-01T23:58:14.711Z,4.47
